Time;durP1;ratioP1;P1;durP2;ratioP2;P2;SDS_P1;SDS_P2;PMS_P1;PMS_P2;Temp;Humidity;BMP_temperature;BMP_pressure;BME280_temperature;BME280_humidity;BME280_pressure;Samples;Min_cycle;Max_cycle;Signal;HPM_P1;HPM_P2
2023/01/14 00:01:23;;;;;;;15.77;6.10;;;;;;;6.03;100.00;99527.56;4217505;28;20414;-64
2023/01/14 00:03:50;;;;;;;13.07;6.43;;;;;;;5.96;100.00;99526.44;4208753;28;21779;-62
2023/01/14 00:06:20;;;;;;;15.70;6.07;;;;;;;6.04;100.00;99526.56;4227812;28;20226;-64
2023/01/14 00:08:46;;;;;;;13.43;5.57;;;;;;;6.00;100.00;99522.56;4214636;28;20242;-64
2023/01/14 00:11:14;;;;;;;12.83;5.60;;;;;;;5.98;100.00;99527.16;4212467;28;21511;-64
2023/01/14 00:13:42;;;;;;;15.37;6.10;;;;;;;5.92;100.00;99526.69;4218069;28;20409;-64
2023/01/14 00:16:13;;;;;;;15.03;5.80;;;;;;;5.82;100.00;99525.00;4206599;28;25927;-62
2023/01/14 00:18:40;;;;;;;14.20;6.17;;;;;;;5.86;100.00;99526.41;4227037;28;20317;-61
2023/01/14 00:21:07;;;;;;;15.17;5.70;;;;;;;5.79;100.00;99525.28;4213200;28;21875;-66
2023/01/14 00:23:34;;;;;;;18.00;6.00;;;;;;;5.86;100.00;99529.06;4214011;28;22998;-63
2023/01/14 00:26:06;;;;;;;16.93;6.20;;;;;;;5.86;100.00;99532.53;4207719;28;20251;-62
2023/01/14 00:28:33;;;;;;;13.97;5.50;;;;;;;5.82;100.00;99533.75;4210016;28;20236;-65
2023/01/14 00:31:05;;;;;;;15.37;6.00;;;;;;;5.81;100.00;99545.31;4213579;28;20240;-61
2023/01/14 00:33:32;;;;;;;14.33;5.50;;;;;;;5.72;100.00;99546.94;4215552;28;20619;-65
2023/01/14 00:35:59;;;;;;;13.37;5.30;;;;;;;5.77;100.00;99551.81;4222839;28;22261;-66
2023/01/14 00:38:26;;;;;;;12.63;5.60;;;;;;;5.59;100.00;99548.16;4214659;28;22446;-63
2023/01/14 00:41:06;;;;;;;13.33;5.53;;;;;;;5.54;100.00;99547.72;4213610;28;20631;-61
2023/01/14 00:43:47;;;;;;;11.03;4.90;;;;;;;5.64;100.00;99548.59;4228899;28;20235;-64
2023/01/14 00:46:41;;;;;;;11.67;5.30;;;;;;;5.64;100.00;99553.88;4215580;28;20965;-62
2023/01/14 00:49:14;;;;;;;13.00;4.97;;;;;;;5.65;100.00;99561.66;4222545;28;20309;-64
2023/01/14 00:51:41;;;;;;;13.57;5.20;;;;;;;5.71;100.00;99568.19;4213113;28;22828;-63
2023/01/14 00:54:07;;;;;;;11.77;5.30;;;;;;;5.72;100.00;99572.50;4212911;28;20244;-66
2023/01/14 00:56:34;;;;;;;12.87;5.00;;;;;;;5.80;100.00;99569.19;4214637;28;20228;-65
2023/01/14 00:59:00;;;;;;;15.10;5.17;;;;;;;5.78;100.00;99577.22;4200839;28;20231;-63
2023/01/14 01:01:27;;;;;;;11.90;5.20;;;;;;;5.69;100.00;99570.97;4226503;28;20303;-64
2023/01/14 01:03:55;;;;;;;15.33;4.87;;;;;;;5.60;100.00;99568.31;4229608;28;20232;-63
2023/01/14 01:06:25;;;;;;;12.97;5.30;;;;;;;5.55;100.00;99567.88;4203999;28;22746;-62
2023/01/14 01:08:58;;;;;;;11.53;4.73;;;;;;;5.56;100.00;99572.19;4219142;28;21460;-62
2023/01/14 01:11:25;;;;;;;14.30;4.90;;;;;;;5.55;100.00;99578.41;4217924;28;20287;-62
2023/01/14 01:13:54;;;;;;;15.13;5.20;;;;;;;5.54;100.00;99587.31;4214888;28;20283;-62
2023/01/14 01:16:23;;;;;;;12.40;5.57;;;;;;;5.48;100.00;99584.25;4211128;28;20235;-61
2023/01/14 01:18:53;;;;;;;11.13;4.53;;;;;;;5.45;100.00;99581.84;4208983;28;20284;-62
2023/01/14 01:21:20;;;;;;;14.30;4.53;;;;;;;5.43;100.00;99591.72;4225675;28;20231;-62
2023/01/14 01:23:47;;;;;;;13.07;5.30;;;;;;;5.42;100.00;99595.31;4215446;28;20238;-61
2023/01/14 01:26:16;;;;;;;10.17;4.50;;;;;;;5.43;100.00;99583.81;4216376;28;20405;-64
2023/01/14 01:28:47;;;;;;;13.03;5.43;;;;;;;5.39;100.00;99584.22;4227182;28;20444;-62
2023/01/14 01:31:13;;;;;;;11.43;4.80;;;;;;;5.38;100.00;99582.53;4226222;28;20231;-61
2023/01/14 01:33:40;;;;;;;17.07;4.97;;;;;;;5.37;100.00;99581.69;4210230;28;21296;-62
2023/01/14 01:36:12;;;;;;;13.13;5.10;;;;;;;5.38;100.00;99579.88;4235723;28;20242;-64
2023/01/14 01:38:39;;;;;;;12.03;4.67;;;;;;;5.35;100.00;99575.72;4215815;28;21722;-63
2023/01/14 01:41:06;;;;;;;10.60;4.20;;;;;;;5.39;100.00;99585.03;4215327;28;21416;-61
2023/01/14 01:43:33;;;;;;;13.53;4.90;;;;;;;5.43;100.00;99583.81;4230392;28;20446;-64
2023/01/14 01:46:00;;;;;;;11.47;4.53;;;;;;;5.45;100.00;99575.75;4244199;28;20299;-64
2023/01/14 01:48:32;;;;;;;14.40;5.03;;;;;;;5.50;100.00;99581.47;4211455;28;21055;-62
2023/01/14 01:51:04;;;;;;;15.20;5.57;;;;;;;5.40;100.00;99585.88;4211418;28;20232;-63
2023/01/14 01:53:32;;;;;;;11.03;4.83;;;;;;;5.39;100.00;99589.50;4217585;28;21681;-61
2023/01/14 01:55:59;;;;;;;12.37;4.63;;;;;;;5.41;100.00;99591.03;4204793;28;20240;-61
2023/01/14 01:58:26;;;;;;;14.17;4.60;;;;;;;5.43;100.00;99580.31;4214629;28;20235;-64
2023/01/14 02:00:53;;;;;;;12.90;5.20;;;;;;;5.48;100.00;99584.25;4203919;28;20225;-63
2023/01/14 02:03:26;;;;;;;11.20;4.77;;;;;;;5.49;100.00;99585.91;4217056;28;20785;-61
2023/01/14 02:05:52;;;;;;;10.13;5.13;;;;;;;5.55;100.00;99581.06;4219198;28;20232;-62
2023/01/14 02:08:19;;;;;;;13.83;4.83;;;;;;;5.59;100.00;99587.75;4225461;28;20441;-59
2023/01/14 02:10:53;;;;;;;12.53;4.63;;;;;;;5.57;100.00;99587.03;4201991;28;20247;-62
2023/01/14 02:13:31;;;;;;;12.20;4.33;;;;;;;5.68;100.00;99586.94;4214554;28;22515;-60
2023/01/14 02:16:32;;;;;;;13.30;4.90;;;;;;;5.61;100.00;99594.56;4218207;28;20232;-63
2023/01/14 02:19:14;;;;;;;14.23;5.17;;;;;;;5.61;100.00;99594.56;4208466;28;23735;-61
2023/01/14 02:22:11;;;;;;;11.70;4.83;;;;;;;5.67;99.97;99601.94;4217800;28;23074;-62
2023/01/14 02:25:10;;;;;;;13.57;5.43;;;;;;;5.67;100.00;99601.94;4228182;28;20231;-60
2023/01/14 02:27:40;;;;;;;12.13;4.90;;;;;;;5.70;99.50;99606.13;4205931;28;20641;-61
2023/01/14 02:30:06;;;;;;;11.07;4.37;;;;;;;5.73;99.73;99605.84;4219391;28;20240;-64
2023/01/14 02:32:41;;;;;;;12.17;5.13;;;;;;;5.67;100.00;99604.59;4219153;28;23192;-62
2023/01/14 02:35:43;;;;;;;13.00;4.57;;;;;;;5.69;99.69;99605.28;4226301;28;20294;-63
2023/01/14 02:38:38;;;;;;;13.43;4.30;;;;;;;5.71;99.43;99610.41;4228168;28;21729;-63
2023/01/14 02:44:07;;;;;;;11.10;4.90;;;;;;;5.61;100.00;99617.47;4228268;28;21800;-61
2023/01/14 02:44:19;;;;;;;14.40;5.43;;;;;;;5.56;100.00;99620.53;4216130;28;20228;-65
2023/01/14 02:46:48;;;;;;;15.33;5.23;;;;;;;5.49;100.00;99622.03;4214372;28;21900;-62
2023/01/14 02:49:22;;;;;;;9.40;5.03;;;;;;;5.43;100.00;99615.47;4217251;28;20234;-62
2023/01/14 02:51:49;;;;;;;13.57;5.23;;;;;;;5.41;100.00;99627.97;4219516;28;20336;-62
2023/01/14 02:54:18;;;;;;;11.70;4.63;;;;;;;5.49;100.00;99624.66;4233112;28;20630;-60
2023/01/14 02:56:46;;;;;;;9.63;4.47;;;;;;;5.44;100.00;99622.41;4218572;28;20254;-61
2023/01/14 02:59:15;;;;;;;13.20;5.07;;;;;;;5.45;100.00;99629.34;4214540;28;20304;-61
2023/01/14 03:01:57;;;;;;;10.70;4.90;;;;;;;5.47;100.00;99626.59;4214134;28;24955;-63
2023/01/14 03:04:49;;;;;;;11.80;5.10;;;;;;;5.43;100.00;99636.59;4210303;28;20285;-61
2023/01/14 03:07:23;;;;;;;12.20;4.60;;;;;;;5.46;100.00;99630.22;4212992;28;20263;-61
2023/01/14 03:09:57;;;;;;;12.53;5.17;;;;;;;5.45;100.00;99631.16;4208530;28;20249;-61
2023/01/14 03:12:34;;;;;;;14.43;5.00;;;;;;;5.38;100.00;99632.66;4227564;28;26307;-65
2023/01/14 03:15:16;;;;;;;9.47;4.80;;;;;;;5.39;100.00;99635.16;4212054;28;20342;-60
2023/01/14 03:18:01;;;;;;;14.63;5.83;;;;;;;5.29;100.00;99636.91;4214792;28;20661;-61
2023/01/14 03:20:31;;;;;;;14.47;5.30;;;;;;;5.29;100.00;99634.28;4227961;28;20360;-63
2023/01/14 03:23:01;;;;;;;12.77;4.90;;;;;;;5.26;100.00;99637.19;4243874;28;22246;-59
2023/01/14 03:25:30;;;;;;;13.90;5.13;;;;;;;5.23;100.00;99642.72;4218638;28;21513;-63
2023/01/14 03:27:58;;;;;;;14.90;5.30;;;;;;;5.23;100.00;99645.38;4204105;28;20235;-60
2023/01/14 03:30:30;;;;;;;9.60;4.60;;;;;;;5.21;100.00;99642.00;4225013;28;20343;-62
2023/01/14 03:32:59;;;;;;;10.13;4.70;;;;;;;5.08;100.00;99648.34;4212143;28;20236;-62
2023/01/14 03:35:31;;;;;;;11.83;5.10;;;;;;;5.05;100.00;99658.28;4202160;28;20248;-63
2023/01/14 03:38:02;;;;;;;11.10;4.90;;;;;;;4.98;100.00;99663.22;4220028;28;21628;-62
2023/01/14 03:40:31;;;;;;;10.73;4.60;;;;;;;4.93;100.00;99661.97;4211308;28;20544;-62
2023/01/14 03:43:06;;;;;;;16.67;5.17;;;;;;;4.85;100.00;99666.06;4219997;28;20410;-62
2023/01/14 03:45:35;;;;;;;11.60;5.00;;;;;;;4.78;100.00;99672.00;4221744;28;20262;-64
2023/01/14 03:48:03;;;;;;;13.10;5.23;;;;;;;4.72;100.00;99675.13;4201288;28;20237;-63
2023/01/14 03:50:58;;;;;;;10.10;4.83;;;;;;;4.73;100.00;99668.88;4206505;28;20544;-63
2023/01/14 03:53:33;;;;;;;14.93;5.07;;;;;;;4.64;100.00;99670.47;4215013;28;21241;-62
2023/01/14 03:56:14;;;;;;;11.37;5.00;;;;;;;4.61;100.00;99683.88;4215228;28;20457;-61
2023/01/14 03:58:47;;;;;;;11.63;4.80;;;;;;;4.65;100.00;99675.59;4213995;28;20627;-63
2023/01/14 04:01:19;;;;;;;13.03;5.17;;;;;;;4.60;100.00;99675.16;4216205;28;20236;-62
2023/01/14 04:03:47;;;;;;;14.07;5.13;;;;;;;4.57;100.00;99682.50;4207610;28;20258;-64
2023/01/14 04:06:13;;;;;;;9.83;4.17;;;;;;;4.58;100.00;99682.34;4198036;28;21218;-63
2023/01/14 04:08:40;;;;;;;13.17;4.93;;;;;;;4.59;100.00;99683.19;4237898;28;20244;-62
2023/01/14 04:11:08;;;;;;;12.43;5.00;;;;;;;4.58;100.00;99679.72;4223608;28;20370;-62
2023/01/14 04:16:20;;;;;;;12.43;5.33;;;;;;;4.52;100.00;99690.75;4219881;28;20714;-64
2023/01/14 04:18:46;;;;;;;14.40;4.97;;;;;;;4.52;100.00;99684.63;4222024;28;22188;-61
2023/01/14 04:21:13;;;;;;;11.87;4.93;;;;;;;4.43;100.00;99683.59;4213407;28;21895;-63
2023/01/14 04:23:43;;;;;;;12.40;5.30;;;;;;;4.39;100.00;99698.81;4215915;28;20260;-65
2023/01/14 04:26:09;;;;;;;14.07;4.53;;;;;;;4.36;100.00;99693.78;4230270;28;20322;-63
2023/01/14 04:28:41;;;;;;;12.20;4.40;;;;;;;4.38;100.00;99698.94;4225175;28;20346;-63
2023/01/14 04:31:08;;;;;;;17.53;4.87;;;;;;;4.39;100.00;99698.81;4228931;28;21599;-63
2023/01/14 04:33:35;;;;;;;12.60;4.60;;;;;;;4.37;100.00;99702.53;4221097;28;20224;-62
2023/01/14 04:36:01;;;;;;;11.43;5.07;;;;;;;4.48;100.00;99699.88;4224344;28;20270;-62
2023/01/14 04:38:28;;;;;;;11.43;5.00;;;;;;;4.48;100.00;99696.41;4209873;28;20344;-63
2023/01/14 04:40:55;;;;;;;11.53;4.70;;;;;;;4.52;100.00;99703.94;4215604;28;25564;-64
2023/01/14 04:43:22;;;;;;;10.00;4.37;;;;;;;4.49;100.00;99708.59;4210568;28;20290;-63
2023/01/14 04:45:50;;;;;;;13.50;4.50;;;;;;;4.54;100.00;99707.28;4222047;28;21619;-61
2023/01/14 04:48:18;;;;;;;14.57;4.67;;;;;;;4.53;100.00;99705.59;4218320;28;20227;-61
2023/01/14 04:50:50;;;;;;;12.90;4.60;;;;;;;4.59;100.00;99710.38;4214984;28;20303;-65
2023/01/14 04:53:20;;;;;;;11.47;4.50;;;;;;;4.57;100.00;99712.31;4228262;28;22850;-62
2023/01/14 04:55:51;;;;;;;12.37;4.60;;;;;;;4.62;100.00;99709.28;4217213;28;20246;-63
2023/01/14 04:58:18;;;;;;;11.73;4.00;;;;;;;4.70;100.00;99721.84;4211422;28;20318;-64
2023/01/14 05:00:45;;;;;;;14.40;4.53;;;;;;;4.63;100.00;99719.69;4219264;28;20331;-64
2023/01/14 05:03:13;;;;;;;8.47;4.00;;;;;;;4.68;100.00;99713.22;4214797;28;20290;-63
2023/01/14 05:05:40;;;;;;;10.67;3.53;;;;;;;4.69;100.00;99714.91;4221546;28;20230;-62
2023/01/14 05:08:08;;;;;;;10.83;4.20;;;;;;;4.68;100.00;99723.75;4228648;28;20477;-61
2023/01/14 05:10:34;;;;;;;8.50;3.80;;;;;;;4.74;100.00;99725.91;4213991;28;20304;-62
2023/01/14 05:13:02;;;;;;;10.50;3.67;;;;;;;4.75;100.00;99724.94;4214882;28;23181;-62
2023/01/14 05:15:34;;;;;;;10.83;3.37;;;;;;;4.76;100.00;99726.63;4234418;28;20232;-65
2023/01/14 05:18:01;;;;;;;13.33;3.50;;;;;;;4.80;100.00;99728.03;4217463;28;20236;-64
2023/01/14 05:20:31;;;;;;;14.33;3.40;;;;;;;4.76;100.00;99734.53;4229647;28;21706;-63
2023/01/14 05:23:03;;;;;;;9.20;3.07;;;;;;;4.74;100.00;99736.44;4219318;28;20240;-62
2023/01/14 05:25:32;;;;;;;9.30;3.67;;;;;;;4.76;100.00;99734.53;4207272;28;20279;-63
2023/01/14 05:27:59;;;;;;;9.80;3.10;;;;;;;4.79;100.00;99743.00;4224756;28;23539;-61
2023/01/14 05:30:26;;;;;;;7.63;3.03;;;;;;;4.73;100.00;99743.53;4215892;28;20305;-64
2023/01/14 05:33:02;;;;;;;9.43;3.13;;;;;;;4.75;100.00;99746.00;4216935;28;20236;-61
2023/01/14 05:35:28;;;;;;;7.47;3.13;;;;;;;4.65;100.00;99757.31;4215351;28;21602;-62
2023/01/14 05:37:58;;;;;;;10.70;2.97;;;;;;;4.66;100.00;99752.88;4220973;28;21137;-62
2023/01/14 05:40:25;;;;;;;10.83;3.63;;;;;;;4.68;100.00;99755.38;4217156;28;20325;-65
2023/01/14 05:45:59;;;;;;;8.73;3.07;;;;;;;4.60;100.00;99754.19;4251669;28;20413;-61
2023/01/14 05:48:26;;;;;;;6.50;3.30;;;;;;;4.60;100.00;99754.19;4210808;28;20239;-64
2023/01/14 05:50:54;;;;;;;13.33;4.03;;;;;;;4.58;100.00;99761.38;4220181;28;20359;-60
2023/01/14 05:53:21;;;;;;;11.20;3.37;;;;;;;4.59;100.00;99755.19;4219545;28;23645;-60
2023/01/14 05:55:48;;;;;;;11.17;3.40;;;;;;;4.53;100.00;99758.28;4223207;28;26249;-61
2023/01/14 05:58:15;;;;;;;9.90;3.17;;;;;;;4.55;100.00;99772.19;4215741;28;21389;-62
2023/01/14 06:06:22;;;;;;;12.00;3.27;;;;;;;4.48;100.00;99781.53;4220985;28;20380;-64
2023/01/14 06:09:09;;;;;;;6.33;2.93;;;;;;;4.50;100.00;99787.53;4222214;28;20301;-62
2023/01/14 06:11:39;;;;;;;6.00;2.60;;;;;;;4.53;100.00;99774.09;4216714;28;20231;-62
2023/01/14 06:14:06;;;;;;;11.40;3.00;;;;;;;4.52;100.00;99784.75;4213386;28;20233;-61
2023/01/14 06:16:40;;;;;;;11.07;3.03;;;;;;;4.58;100.00;99787.75;4234667;28;20257;-63
2023/01/14 06:19:12;;;;;;;6.97;2.60;;;;;;;4.65;100.00;99788.09;4215953;28;22297;-62
2023/01/14 06:21:39;;;;;;;11.00;3.17;;;;;;;4.71;100.00;99784.16;4225614;28;20239;-62
2023/01/14 06:24:06;;;;;;;10.30;2.93;;;;;;;4.75;100.00;99794.31;4217011;28;20273;-62
2023/01/14 06:26:34;;;;;;;11.27;3.03;;;;;;;4.80;100.00;99789.50;4217575;28;21378;-63
2023/01/14 06:29:04;;;;;;;9.57;3.10;;;;;;;4.85;100.00;99797.03;4202029;28;20401;-63
2023/01/14 06:31:31;;;;;;;8.10;2.40;;;;;;;4.87;100.00;99797.75;4215271;28;21910;-61
2023/01/14 06:33:59;;;;;;;7.83;2.50;;;;;;;4.95;99.88;99797.97;4218847;28;20325;-62
2023/01/14 06:36:29;;;;;;;7.80;2.83;;;;;;;4.96;100.00;99799.63;4224140;28;20250;-64
2023/01/14 06:38:56;;;;;;;15.50;3.47;;;;;;;5.01;99.73;99802.75;4212728;28;21713;-65
2023/01/14 06:41:23;;;;;;;11.07;2.70;;;;;;;5.06;99.49;99805.00;4236960;28;20253;-64
2023/01/14 06:43:49;;;;;;;8.57;2.47;;;;;;;5.06;98.57;99805.84;4216176;28;21777;-61
2023/01/14 06:46:16;;;;;;;8.70;2.60;;;;;;;5.12;98.65;99806.28;4213261;28;20233;-63
2023/01/14 06:48:44;;;;;;;8.73;2.77;;;;;;;5.13;98.55;99802.69;4212586;28;20254;-61
2023/01/14 06:51:13;;;;;;;9.43;2.80;;;;;;;5.14;98.50;99802.56;4218517;28;20530;-61
2023/01/14 06:53:40;;;;;;;7.53;2.40;;;;;;;5.20;98.47;99803.88;4218278;28;20232;-64
2023/01/14 06:56:16;;;;;;;7.27;2.60;;;;;;;5.27;98.83;99816.44;4197994;28;20235;-63
2023/01/14 06:58:44;;;;;;;10.13;4.67;;;;;;;5.22;99.02;99820.41;4221037;28;20241;-62
2023/01/14 07:01:11;;;;;;;10.10;2.57;;;;;;;5.18;99.17;99816.34;4217079;28;21327;-65
2023/01/14 07:03:38;;;;;;;8.53;2.43;;;;;;;5.26;99.41;99819.19;4219453;28;20277;-63
2023/01/14 07:06:06;;;;;;;6.63;2.87;;;;;;;5.28;98.54;99827.81;4212403;28;21369;-64
2023/01/14 07:08:33;;;;;;;7.03;2.43;;;;;;;5.25;98.72;99825.44;4231996;28;20228;-65
2023/01/14 07:11:00;;;;;;;6.47;2.73;;;;;;;5.26;98.86;99827.09;4216335;28;20305;-62
2023/01/14 07:13:26;;;;;;;9.23;2.70;;;;;;;5.32;98.13;99831.88;4210912;28;21260;-64
2023/01/14 07:15:53;;;;;;;7.03;2.70;;;;;;;5.39;97.25;99825.13;4221984;28;20328;-63
2023/01/14 07:18:20;;;;;;;11.17;2.80;;;;;;;5.41;97.08;99831.13;4253889;28;22353;-61
2023/01/14 07:20:47;;;;;;;10.20;2.53;;;;;;;5.43;97.48;99836.25;4225871;28;20309;-65
2023/01/14 07:23:14;;;;;;;7.40;2.77;;;;;;;5.43;96.89;99837.13;4239022;28;20757;-64
2023/01/14 07:25:40;;;;;;;12.93;2.60;;;;;;;5.44;96.78;99837.94;4249622;28;20230;-65
2023/01/14 07:28:07;;;;;;;9.77;3.23;;;;;;;5.44;97.26;99848.50;4245464;28;20407;-60
2023/01/14 07:30:34;;;;;;;9.93;2.73;;;;;;;5.39;97.06;99855.97;4225130;28;20438;-63
2023/01/14 07:33:01;;;;;;;8.90;2.70;;;;;;;5.46;96.80;99857.13;4235659;28;20254;-62
2023/01/14 07:35:28;;;;;;;10.43;3.10;;;;;;;5.42;96.83;99861.81;4241323;28;20233;-67
2023/01/14 07:37:58;;;;;;;11.00;2.60;;;;;;;5.45;96.09;99864.19;4237344;28;20235;-61
2023/01/14 07:40:26;;;;;;;8.20;2.90;;;;;;;5.49;96.28;99868.25;4238895;28;22066;-62
2023/01/14 07:42:59;;;;;;;8.73;3.10;;;;;;;5.40;97.18;99862.91;4217075;28;21577;-63
2023/01/14 07:45:27;;;;;;;8.10;2.57;;;;;;;5.50;97.44;99867.31;4232084;28;20314;-63
2023/01/14 07:47:54;;;;;;;8.60;2.63;;;;;;;5.58;96.21;99871.94;4223733;28;20335;-64
2023/01/14 07:50:20;;;;;;;12.93;2.70;;;;;;;5.57;96.18;99869.44;4225480;28;20779;-63
2023/01/14 07:52:56;;;;;;;12.10;2.60;;;;;;;5.60;96.32;99877.94;4218286;28;20246;-62
2023/01/14 07:55:23;;;;;;;6.17;2.50;;;;;;;5.64;96.40;99875.88;4218977;28;21581;-65
2023/01/14 07:57:50;;;;;;;5.80;2.50;;;;;;;5.61;96.09;99887.53;4232388;28;20232;-63
2023/01/14 08:00:17;;;;;;;8.27;2.70;;;;;;;5.59;96.14;99886.81;4214269;28;22096;-67
2023/01/14 08:02:45;;;;;;;7.90;2.60;;;;;;;5.67;96.20;99886.19;4224822;28;20231;-73
2023/01/14 08:05:12;;;;;;;13.67;2.90;;;;;;;5.78;95.62;99888.75;4223358;28;21229;-62
2023/01/14 08:07:39;;;;;;;9.87;2.43;;;;;;;5.82;94.98;99879.63;4227770;28;20773;-63
2023/01/14 08:10:07;;;;;;;9.30;2.20;;;;;;;5.75;95.21;99890.81;4258582;28;20578;-63
2023/01/14 08:12:33;;;;;;;9.33;2.53;;;;;;;5.83;94.65;99891.88;4243057;28;20256;-61
2023/01/14 08:15:01;;;;;;;8.03;2.40;;;;;;;5.92;94.63;99890.25;4262784;28;20303;-62
2023/01/14 08:17:28;;;;;;;8.53;2.50;;;;;;;6.07;93.33;99894.28;4235826;28;21458;-63
2023/01/14 08:19:54;;;;;;;11.20;2.60;;;;;;;6.08;94.15;99897.75;4224090;28;20223;-65
2023/01/14 08:22:21;;;;;;;5.07;2.57;;;;;;;6.16;93.38;99899.75;4263752;28;21341;-62
2023/01/14 08:24:48;;;;;;;8.17;2.50;;;;;;;6.16;93.05;99897.09;4233674;28;20294;-62
2023/01/14 08:27:15;;;;;;;7.10;2.27;;;;;;;6.11;93.59;99902.78;4277541;28;20247;-61
2023/01/14 08:29:41;;;;;;;8.57;2.40;;;;;;;6.09;92.63;99923.22;4232593;28;20506;-63
2023/01/14 08:32:08;;;;;;;6.17;2.37;;;;;;;6.05;92.88;99911.22;4250498;28;20717;-62
2023/01/14 08:34:35;;;;;;;6.50;2.37;;;;;;;6.12;92.83;99922.94;4260495;28;20227;-61
2023/01/14 08:37:01;;;;;;;7.00;2.77;;;;;;;6.20;92.97;99925.78;4226258;28;20641;-64
2023/01/14 08:39:28;;;;;;;6.73;2.53;;;;;;;6.19;92.72;99921.47;4229507;28;20239;-62
2023/01/14 08:41:57;;;;;;;6.93;2.50;;;;;;;6.18;92.29;99930.38;4224402;28;20224;-62
2023/01/14 08:44:23;;;;;;;8.20;2.37;;;;;;;6.08;92.85;99932.09;4247456;28;20224;-64
2023/01/14 08:46:50;;;;;;;7.33;2.27;;;;;;;6.09;93.59;99937.25;4233155;28;20340;-63
2023/01/14 08:49:17;;;;;;;7.37;2.30;;;;;;;6.27;92.48;99937.50;4205937;28;20244;-65
2023/01/14 08:51:44;;;;;;;6.83;1.80;;;;;;;6.49;91.75;99946.28;4223397;28;21625;-61
2023/01/14 08:54:11;;;;;;;4.50;1.80;;;;;;;6.37;90.46;99944.66;4265994;28;20364;-63
2023/01/14 08:56:38;;;;;;;6.73;1.90;;;;;;;6.28;91.38;99947.13;4247494;28;20659;-64
2023/01/14 08:59:04;;;;;;;6.17;2.37;;;;;;;7.48;89.29;99949.94;4234570;28;21632;-63
2023/01/14 09:01:31;;;;;;;9.10;2.13;;;;;;;8.39;80.37;99965.56;4247615;28;20344;-64
2023/01/14 09:04:18;;;;;;;7.57;1.70;;;;;;;7.28;84.78;99953.53;4223541;28;21576;-64
2023/01/14 09:17:58;;;;;;;7.03;1.93;;;;;;;12.74;61.60;100004.00;4272199;28;20247;-65
2023/01/14 09:20:31;;;;;;;6.53;1.57;;;;;;;12.50;59.10;100008.34;4227444;28;22323;-63
2023/01/14 09:22:58;;;;;;;11.07;2.03;;;;;;;10.70;66.24;100002.47;4222075;28;20261;-63
2023/01/14 09:25:24;;;;;;;6.37;1.93;;;;;;;9.54;72.44;99994.47;4233278;28;20915;-62
2023/01/14 09:27:53;;;;;;;6.50;1.93;;;;;;;8.38;78.05;99977.97;4237778;28;22873;-62
2023/01/14 09:30:20;;;;;;;8.13;2.30;;;;;;;7.95;81.92;99967.81;4222683;28;20235;-63
2023/01/14 09:32:46;;;;;;;10.07;2.70;;;;;;;7.90;83.24;99973.53;4243176;28;20348;-62
2023/01/14 09:35:13;;;;;;;10.93;2.77;;;;;;;7.55;84.27;99974.91;4227820;28;20233;-73
2023/01/14 09:37:40;;;;;;;8.63;2.20;;;;;;;7.37;85.21;99977.38;4231449;28;20383;-66
2023/01/14 09:40:07;;;;;;;9.47;2.90;;;;;;;7.21;86.37;99970.91;4236210;28;20244;-62
2023/01/14 09:42:41;;;;;;;8.63;2.97;;;;;;;7.05;87.66;99974.91;4269868;28;20432;-67
2023/01/14 09:45:15;;;;;;;9.43;2.63;;;;;;;6.97;87.97;99980.03;4232537;28;20228;-63
2023/01/14 09:47:43;;;;;;;11.87;3.03;;;;;;;6.81;88.58;99971.75;4226763;28;21408;-67
2023/01/14 09:50:16;;;;;;;6.73;2.30;;;;;;;6.84;88.51;99974.97;4221723;28;20309;-64
2023/01/14 09:53:16;;;;;;;9.23;2.47;;;;;;;6.75;89.92;99973.94;4237940;28;20298;-63
2023/01/14 09:56:00;;;;;;;11.73;3.47;;;;;;;6.67;90.27;99980.84;4228636;28;22314;-61
2023/01/14 09:58:37;;;;;;;8.57;2.73;;;;;;;6.57;90.09;99972.03;4248603;28;20301;-63
2023/01/14 10:01:26;;;;;;;7.83;3.00;;;;;;;6.57;90.17;99974.69;4215382;28;21722;-65
2023/01/14 10:04:20;;;;;;;9.53;3.27;;;;;;;6.63;90.55;99976.81;4236339;28;20252;-64
2023/01/14 10:06:48;;;;;;;7.17;2.80;;;;;;;6.45;91.04;99971.28;4247763;28;20529;-64
2023/01/14 10:09:24;;;;;;;8.57;2.90;;;;;;;6.42;91.79;99971.53;4223129;28;20416;-62
2023/01/14 10:11:51;;;;;;;8.50;2.70;;;;;;;6.48;91.10;99971.00;4239766;28;23418;-62
2023/01/14 10:14:21;;;;;;;11.93;2.60;;;;;;;6.37;91.76;99968.44;4234528;28;20231;-62
2023/01/14 10:16:51;;;;;;;8.57;3.07;;;;;;;6.46;91.97;99970.28;4231712;28;20238;-65
2023/01/14 10:19:36;;;;;;;12.93;3.10;;;;;;;6.37;92.09;99965.78;4227889;28;20240;-66
2023/01/14 10:22:20;;;;;;;9.07;3.37;;;;;;;6.44;91.77;99959.00;4235428;28;20376;-64
2023/01/14 10:24:47;;;;;;;9.20;2.60;;;;;;;6.35;91.88;99960.66;4199219;28;20310;-65
2023/01/14 10:27:15;;;;;;;9.23;3.03;;;;;;;6.41;92.38;99965.41;4243357;28;20346;-64
2023/01/14 10:29:42;;;;;;;8.73;2.70;;;;;;;6.42;91.84;99968.91;4227928;28;20283;-64
2023/01/14 10:32:14;;;;;;;10.07;3.13;;;;;;;6.63;91.33;99968.88;4229821;28;22368;-64
2023/01/14 10:34:45;;;;;;;9.63;3.20;;;;;;;7.04;90.15;99965.28;4220356;28;20309;-63
2023/01/14 10:37:13;;;;;;;9.53;3.00;;;;;;;7.06;88.90;99965.16;4208176;28;20258;-65
2023/01/14 10:39:50;;;;;;;14.43;3.20;;;;;;;7.33;86.83;99962.75;4233838;28;20666;-63
2023/01/14 10:42:25;;;;;;;7.70;2.60;;;;;;;7.25;87.31;99962.56;4224414;28;20426;-64
2023/01/14 10:44:53;;;;;;;8.00;2.90;;;;;;;7.30;87.57;99973.59;4233358;28;20302;-64
2023/01/14 10:47:20;;;;;;;10.33;2.90;;;;;;;7.43;86.68;99965.41;4219948;28;20236;-64
2023/01/14 10:49:51;;;;;;;7.00;2.80;;;;;;;7.27;86.60;99963.28;4280113;28;20236;-68
2023/01/14 10:52:20;;;;;;;7.23;2.30;;;;;;;7.14;88.20;99962.66;4223223;28;22760;-64
2023/01/14 10:55:10;;;;;;;10.33;2.47;;;;;;;7.26;88.08;99966.03;4327323;28;20232;-63
2023/01/14 10:58:02;;;;;;;9.43;1.80;;;;;;;7.06;88.90;99959.88;4257177;28;20575;-64
2023/01/14 11:00:33;;;;;;;5.97;2.10;;;;;;;6.98;89.59;99950.81;4269686;28;20727;-63
2023/01/14 11:03:03;;;;;;;11.60;2.73;;;;;;;7.29;88.26;99961.34;4215469;28;20304;-64
2023/01/14 11:05:41;;;;;;;7.73;2.80;;;;;;;7.80;86.22;99967.41;4237354;28;20231;-65
2023/01/14 11:08:13;;;;;;;8.10;2.53;;;;;;;8.29;83.92;99968.22;4241326;28;20228;-65
2023/01/14 11:10:40;;;;;;;6.73;2.70;;;;;;;8.17;83.89;99967.53;4235034;28;20484;-65
2023/01/14 11:13:25;;;;;;;9.20;2.43;;;;;;;7.81;84.97;99958.47;4228293;28;20537;-62
2023/01/14 11:15:53;;;;;;;8.70;2.57;;;;;;;7.49;85.42;99956.94;4217869;28;20298;-65
2023/01/14 11:18:19;;;;;;;13.00;2.70;;;;;;;7.16;86.87;99958.94;4235538;28;20241;-65
2023/01/14 11:21:15;;;;;;;7.67;2.70;;;;;;;7.24;87.08;99955.63;4244469;28;20263;-63
2023/01/14 11:23:44;;;;;;;9.10;2.23;;;;;;;7.67;86.53;99958.88;4246382;28;20236;-58
2023/01/14 11:26:49;;;;;;;9.27;2.47;;;;;;;7.88;86.08;99951.66;4269969;28;20234;-61
2023/01/14 11:29:22;;;;;;;8.30;2.13;;;;;;;7.86;84.95;99953.59;4226331;28;20322;-72
2023/01/14 11:31:51;;;;;;;9.03;2.30;;;;;;;7.71;83.65;99949.69;4214134;28;23081;-66
2023/01/14 11:34:53;;;;;;;10.27;2.60;;;;;;;7.34;85.89;99953.00;4220494;28;20305;-69
2023/01/14 11:37:23;;;;;;;10.00;2.17;;;;;;;7.31;86.07;99947.97;4259574;28;20287;-67
2023/01/14 11:39:56;;;;;;;7.43;3.07;;;;;;;7.26;86.77;99944.88;4212382;28;20231;-65
2023/01/14 11:42:30;;;;;;;5.77;2.00;;;;;;;7.22;86.18;99943.50;4237872;28;20243;-68
2023/01/14 11:45:03;;;;;;;7.37;1.87;;;;;;;7.11;86.91;99950.53;4229533;28;20231;-65
2023/01/14 11:47:30;;;;;;;8.57;2.70;;;;;;;7.02;86.14;99943.41;4235999;28;20231;-68
2023/01/14 11:50:15;;;;;;;8.90;2.47;;;;;;;6.92;86.80;99946.03;4240454;28;20290;-66
2023/01/14 11:53:02;;;;;;;7.77;1.90;;;;;;;6.94;87.42;99948.56;4219176;28;20245;-67
2023/01/14 11:55:37;;;;;;;13.00;2.50;;;;;;;6.85;88.28;99946.72;4259113;28;22505;-64
2023/01/14 11:58:15;;;;;;;11.23;2.63;;;;;;;6.90;88.00;99944.50;4228998;28;20397;-67
2023/01/14 12:00:51;;;;;;;11.23;2.63;;;;;;;6.98;88.27;99942.88;4223119;28;21310;-66
2023/01/14 12:03:24;;;;;;;9.60;2.30;;;;;;;6.85;88.20;99950.19;4226335;28;20914;-65
2023/01/14 12:05:53;;;;;;;7.73;2.50;;;;;;;6.89;88.87;99948.13;4219900;28;20985;-66
2023/01/14 12:08:22;;;;;;;9.20;2.70;;;;;;;6.91;88.46;99940.91;4218820;28;20280;-62
2023/01/14 12:10:50;;;;;;;10.07;3.03;;;;;;;6.91;88.46;99947.00;4211697;28;20242;-63
2023/01/14 12:16:49;;;;;;;9.57;2.73;;;;;;;6.97;87.96;99925.31;4226467;28;20282;-65